createdAt,value
2022-11-27T00:01:13.221Z,5.30
2022-11-27T00:03:42.305Z,5.29
2022-11-27T00:06:15.671Z,5.61
2022-11-27T00:08:44.850Z,5.65
2022-11-27T00:11:15.547Z,5.83
2022-11-27T00:13:44.303Z,5.61
2022-11-27T00:16:13.364Z,4.93
2022-11-27T00:18:42.252Z,4.82
2022-11-27T00:21:14.717Z,5.20
2022-11-27T00:23:43.744Z,5.37
2022-11-27T00:26:12.639Z,5.43
2022-11-27T00:28:40.928Z,5.67
2022-11-27T00:31:14.565Z,5.20
2022-11-27T00:33:42.969Z,5.40
2022-11-27T00:36:13.636Z,5.53
2022-11-27T00:38:41.944Z,5.85
2022-11-27T00:41:11.472Z,5.84
2022-11-27T00:43:44.604Z,6.05
2022-11-27T00:46:14.059Z,6.15
2022-11-27T00:48:43.142Z,6.06
2022-11-27T00:51:20.836Z,6.02
2022-11-27T00:53:49.150Z,5.94
2022-11-27T00:56:18.910Z,6.14
2022-11-27T00:58:47.561Z,6.03
2022-11-27T01:01:18.097Z,6.07
2022-11-27T01:03:46.433Z,6.01
2022-11-27T01:06:16.506Z,5.84
2022-11-27T01:08:44.847Z,5.85
2022-11-27T01:11:15.660Z,5.82
2022-11-27T01:13:44.641Z,5.94
2022-11-27T01:16:15.600Z,5.82
2022-11-27T01:18:45.142Z,5.79
2022-11-27T01:21:14.307Z,5.80
2022-11-27T01:23:44.016Z,5.79
2022-11-27T01:26:13.122Z,5.74
2022-11-27T01:28:41.635Z,5.67
2022-11-27T01:31:13.263Z,5.58
2022-11-27T01:33:41.570Z,5.32
2022-11-27T01:36:11.938Z,5.14
2022-11-27T01:38:40.191Z,5.51
2022-11-27T01:41:15.169Z,5.62
2022-11-27T01:43:45.900Z,5.59
2022-11-27T01:46:32.598Z,5.63
2022-11-27T01:49:15.331Z,5.40
2022-11-27T01:51:47.956Z,5.53
2022-11-27T01:54:17.569Z,5.48
2022-11-27T01:56:50.288Z,5.47
2022-11-27T01:59:19.446Z,5.46
2022-11-27T02:01:47.830Z,5.53
2022-11-27T02:04:16.430Z,5.40
2022-11-27T02:06:44.700Z,5.51
2022-11-27T02:09:13.092Z,5.48
2022-11-27T02:11:52.312Z,5.50
2022-11-27T02:14:26.685Z,5.54
2022-11-27T02:16:59.983Z,5.54
2022-11-27T02:19:43.901Z,5.30
2022-11-27T02:22:26.175Z,5.52
2022-11-27T02:25:00.556Z,5.50
2022-11-27T02:27:48.243Z,5.10
2022-11-27T02:30:18.709Z,5.02
2022-11-27T02:32:51.116Z,5.15
2022-11-27T02:35:21.698Z,4.83
2022-11-27T02:37:50.350Z,4.91
2022-11-27T02:40:22.990Z,4.87
2022-11-27T02:42:54.831Z,4.88
2022-11-27T02:45:28.197Z,4.75
2022-11-27T02:47:57.466Z,4.83
2022-11-27T02:50:27.214Z,4.90
2022-11-27T02:53:00.430Z,5.09
2022-11-27T02:55:31.836Z,5.27
2022-11-27T02:58:01.951Z,5.05
2022-11-27T03:00:32.343Z,5.05
2022-11-27T03:03:03.224Z,5.17
2022-11-27T03:05:33.973Z,5.09
2022-11-27T03:08:05.688Z,5.21
2022-11-27T03:10:37.292Z,5.20
2022-11-27T03:13:05.739Z,5.26
2022-11-27T03:15:40.333Z,5.31
2022-11-27T03:18:13.707Z,5.30
2022-11-27T03:20:43.200Z,5.23
2022-11-27T03:23:11.567Z,4.88
2022-11-27T03:25:39.791Z,4.81
2022-11-27T03:28:09.848Z,5.02
2022-11-27T03:30:41.457Z,5.23
2022-11-27T03:33:09.969Z,5.22
2022-11-27T03:35:38.504Z,5.20
2022-11-27T03:38:06.958Z,5.16
2022-11-27T03:40:42.813Z,5.24
2022-11-27T03:43:15.503Z,5.14
2022-11-27T03:45:51.657Z,5.18
2022-11-27T03:48:24.755Z,5.21
2022-11-27T03:51:00.414Z,5.09
2022-11-27T03:53:35.073Z,5.17
2022-11-27T03:56:10.421Z,5.24
2022-11-27T03:58:41.409Z,5.03
2022-11-27T04:01:13.652Z,4.98
2022-11-27T04:03:41.898Z,4.92
2022-11-27T04:06:11.746Z,4.51
2022-11-27T04:08:40.374Z,4.81
2022-11-27T04:11:09.039Z,4.71
2022-11-27T04:13:37.351Z,4.50
2022-11-27T04:16:06.205Z,4.45
2022-11-27T04:18:35.799Z,4.39
2022-11-27T04:21:05.102Z,4.00
2022-11-27T04:23:33.314Z,4.21
2022-11-27T04:26:01.593Z,4.20
2022-11-27T04:28:30.614Z,4.40
2022-11-27T04:30:59.029Z,4.51
2022-11-27T04:33:27.267Z,4.57
2022-11-27T04:35:56.951Z,4.66
2022-11-27T04:38:25.234Z,4.62
2022-11-27T04:40:53.830Z,4.52
2022-11-27T04:43:22.075Z,4.30
2022-11-27T04:45:50.483Z,3.93
2022-11-27T04:48:18.772Z,3.73
2022-11-27T04:50:47.168Z,4.08
2022-11-27T04:53:16.836Z,3.96
2022-11-27T04:55:45.060Z,3.95
2022-11-27T04:58:13.386Z,4.01
2022-11-27T05:00:41.763Z,4.20
2022-11-27T05:03:10.174Z,4.34
2022-11-27T05:05:38.505Z,4.03
2022-11-27T05:08:06.818Z,4.04
2022-11-27T05:10:36.387Z,4.06
2022-11-27T05:13:04.979Z,4.17
2022-11-27T05:15:33.373Z,4.06
2022-11-27T05:18:01.618Z,4.18
2022-11-27T05:20:29.826Z,3.76
2022-11-27T05:22:58.070Z,3.65
2022-11-27T05:25:26.326Z,3.73
2022-11-27T05:27:55.940Z,3.81
2022-11-27T05:30:24.157Z,3.69
2022-11-27T05:32:52.372Z,3.91
2022-11-27T05:35:20.645Z,3.82
2022-11-27T05:37:48.821Z,3.65
2022-11-27T05:40:17.236Z,3.40
2022-11-27T05:42:45.450Z,3.71
2022-11-27T05:45:15.031Z,3.64
2022-11-27T05:47:43.228Z,3.66
2022-11-27T05:50:11.691Z,4.00
2022-11-27T05:52:39.960Z,3.78
2022-11-27T05:55:08.911Z,3.70
2022-11-27T05:57:37.233Z,3.47
2022-11-27T06:00:07.459Z,3.62
2022-11-27T06:02:37.139Z,3.63
2022-11-27T06:05:05.977Z,3.48
2022-11-27T06:07:34.283Z,3.89
2022-11-27T06:10:02.555Z,3.81
2022-11-27T06:12:32.411Z,4.13
2022-11-27T06:15:00.678Z,4.02
2022-11-27T06:17:28.953Z,4.29
2022-11-27T06:19:58.526Z,4.23
2022-11-27T06:22:26.732Z,4.35
2022-11-27T06:24:55.029Z,4.60
2022-11-27T06:27:23.513Z,4.57
2022-11-27T06:29:51.743Z,4.45
2022-11-27T06:32:20.122Z,4.27
2022-11-27T06:34:48.385Z,4.20
2022-11-27T06:37:18.148Z,4.43
2022-11-27T06:39:46.367Z,4.60
2022-11-27T06:42:14.652Z,4.45
2022-11-27T06:44:43.009Z,4.08
2022-11-27T06:47:11.388Z,4.07
2022-11-27T06:49:39.725Z,3.77
2022-11-27T06:52:08.071Z,4.13
2022-11-27T06:54:37.822Z,3.80
2022-11-27T06:57:06.242Z,4.11
2022-11-27T06:59:34.563Z,4.25
2022-11-27T07:02:02.848Z,3.96
2022-11-27T07:04:31.134Z,3.97
2022-11-27T07:06:59.857Z,3.74
2022-11-27T07:09:28.101Z,3.78
2022-11-27T07:11:57.693Z,3.40
2022-11-27T07:14:25.965Z,3.84
2022-11-27T07:16:54.213Z,3.90
2022-11-27T07:19:22.570Z,3.94
2022-11-27T07:21:50.770Z,4.11
2022-11-27T07:24:19.034Z,3.85
2022-11-27T07:26:47.263Z,3.94
2022-11-27T07:29:16.859Z,3.99
2022-11-27T07:31:45.128Z,4.23
2022-11-27T07:34:17.089Z,4.66
2022-11-27T07:36:48.108Z,4.28
2022-11-27T07:39:25.205Z,4.28
2022-11-27T07:42:23.220Z,4.13
2022-11-27T07:44:51.700Z,4.22
2022-11-27T07:47:19.976Z,4.34
2022-11-27T07:49:48.173Z,4.21
2022-11-27T07:52:16.407Z,3.97
2022-11-27T07:54:44.587Z,4.09
2022-11-27T07:57:12.745Z,4.33
2022-11-27T07:59:46.989Z,4.51
2022-11-27T08:02:17.113Z,4.24
2022-11-27T08:04:45.521Z,3.92
2022-11-27T08:07:13.954Z,3.81
2022-11-27T08:09:42.303Z,4.66
2022-11-27T08:12:10.510Z,4.06
2022-11-27T08:14:39.038Z,3.84
2022-11-27T08:17:07.666Z,3.89
2022-11-27T08:19:37.341Z,4.34
2022-11-27T08:22:07.008Z,4.41
2022-11-27T08:24:37.429Z,4.53
2022-11-27T08:27:05.747Z,4.33
2022-11-27T08:29:34.192Z,4.65
2022-11-27T08:32:02.519Z,4.45
2022-11-27T08:34:30.865Z,4.33
2022-11-27T08:37:00.445Z,4.24
2022-11-27T08:39:28.644Z,4.81
2022-11-27T08:41:56.968Z,4.82
2022-11-27T08:44:25.233Z,4.83
2022-11-27T08:46:53.480Z,4.79
2022-11-27T08:49:21.740Z,5.52
2022-11-27T08:51:49.982Z,4.98
2022-11-27T08:54:19.570Z,4.68
2022-11-27T08:56:47.895Z,5.12
2022-11-27T08:59:16.122Z,4.76
2022-11-27T09:01:44.714Z,4.84
2022-11-27T09:04:12.994Z,5.48
2022-11-27T09:06:42.249Z,5.57
2022-11-27T09:09:10.624Z,5.77
2022-11-27T09:11:40.209Z,5.32
2022-11-27T09:14:09.690Z,5.77
2022-11-27T09:16:38.141Z,5.74
2022-11-27T09:19:06.369Z,5.19
2022-11-27T09:21:34.736Z,5.67
2022-11-27T09:24:03.263Z,6.49
2022-11-27T09:26:31.848Z,6.65
2022-11-27T09:29:01.588Z,6.36
2022-11-27T09:31:29.881Z,6.42
2022-11-27T09:33:58.955Z,6.93
2022-11-27T09:36:27.662Z,6.79
2022-11-27T09:38:55.929Z,6.70
2022-11-27T09:41:41.870Z,7.07
2022-11-27T09:44:26.898Z,6.55
2022-11-27T09:46:56.972Z,6.62
2022-11-27T09:49:27.621Z,6.27
2022-11-27T09:51:56.773Z,6.51
2022-11-27T09:54:28.131Z,6.61
2022-11-27T09:56:57.412Z,6.10
2022-11-27T09:59:33.946Z,6.44
2022-11-27T10:02:02.237Z,6.29
2022-11-27T10:04:51.005Z,6.57
2022-11-27T10:07:28.454Z,6.27
2022-11-27T10:10:06.673Z,6.82
2022-11-27T10:12:41.157Z,5.94
2022-11-27T10:15:16.425Z,6.29
2022-11-27T10:17:48.914Z,6.62
2022-11-27T10:20:23.656Z,6.68
2022-11-27T10:22:57.929Z,6.32
2022-11-27T10:25:30.550Z,6.28
2022-11-27T10:28:05.510Z,6.53
2022-11-27T10:30:39.354Z,6.36
2022-11-27T10:33:14.466Z,6.72
2022-11-27T10:35:44.735Z,6.92
2022-11-27T10:38:16.135Z,6.89
2022-11-27T10:40:48.110Z,6.46
2022-11-27T10:43:19.818Z,7.23
2022-11-27T10:45:51.637Z,7.14
2022-11-27T10:48:20.299Z,6.82
2022-11-27T10:50:48.554Z,7.26
2022-11-27T10:53:27.111Z,6.90
2022-11-27T10:56:02.652Z,6.95
2022-11-27T10:58:35.479Z,6.94
2022-11-27T11:01:07.396Z,6.55
2022-11-27T11:03:36.422Z,6.99
2022-11-27T11:06:23.181Z,6.75
2022-11-27T11:09:02.308Z,6.88
2022-11-27T11:11:30.621Z,7.19
2022-11-27T11:13:59.011Z,7.49
2022-11-27T11:16:35.137Z,7.54
2022-11-27T11:19:06.483Z,7.59
2022-11-27T11:21:36.579Z,8.01
2022-11-27T11:24:07.374Z,8.07
2022-11-27T11:26:38.869Z,7.75
2022-11-27T11:29:08.831Z,7.71
2022-11-27T11:31:40.442Z,7.65
2022-11-27T11:34:18.823Z,7.53
2022-11-27T11:36:58.275Z,7.76
2022-11-27T11:39:28.997Z,8.03
2022-11-27T11:41:57.465Z,8.15
2022-11-27T11:44:32.123Z,7.58
2022-11-27T11:47:01.749Z,7.11
2022-11-27T11:49:31.180Z,7.12
2022-11-27T11:52:13.275Z,7.87
2022-11-27T11:54:50.480Z,8.09
2022-11-27T11:58:00.067Z,8.34
2022-11-27T12:00:38.709Z,7.79
2022-11-27T12:03:27.527Z,7.58
2022-11-27T12:06:05.835Z,8.28
2022-11-27T12:08:46.922Z,7.89
2022-11-27T12:11:16.554Z,7.57
2022-11-27T12:13:53.802Z,7.42
2022-11-27T12:16:30.543Z,8.13
2022-11-27T12:19:25.138Z,7.89
2022-11-27T12:21:58.973Z,7.95
2022-11-27T12:24:36.052Z,7.63
2022-11-27T12:27:15.123Z,7.28
2022-11-27T12:29:57.719Z,7.90
2022-11-27T12:32:34.800Z,7.55
2022-11-27T12:35:20.242Z,7.49
2022-11-27T12:37:57.325Z,7.30
2022-11-27T12:40:36.817Z,7.55
2022-11-27T12:43:13.294Z,7.57
2022-11-27T12:45:45.058Z,7.53
2022-11-27T12:48:16.877Z,6.96
2022-11-27T12:50:49.374Z,7.47
2022-11-27T12:53:24.698Z,7.05
2022-11-27T12:56:02.480Z,7.31
2022-11-27T12:58:33.394Z,7.35
2022-11-27T13:01:05.752Z,7.59
2022-11-27T13:03:41.582Z,7.79
2022-11-27T13:06:13.372Z,7.38
2022-11-27T13:08:52.145Z,6.75
2022-11-27T13:11:21.927Z,6.82
2022-11-27T13:13:53.382Z,7.44
2022-11-27T13:16:27.292Z,7.66
2022-11-27T13:18:59.133Z,7.91
2022-11-27T13:21:30.699Z,8.08
2022-11-27T13:24:01.819Z,7.81
2022-11-27T13:26:34.570Z,7.88
2022-11-27T13:29:05.311Z,7.46
2022-11-27T13:31:37.608Z,7.37
2022-11-27T13:34:08.193Z,7.99
2022-11-27T13:36:40.264Z,7.34
2022-11-27T13:39:22.826Z,7.26
2022-11-27T13:42:01.229Z,7.61
2022-11-27T13:44:30.487Z,7.71
2022-11-27T13:47:01.682Z,7.42
2022-11-27T13:49:32.258Z,7.48
2022-11-27T13:52:09.346Z,7.77
2022-11-27T13:54:37.992Z,8.00
2022-11-27T13:57:17.847Z,8.50
2022-11-27T13:59:56.851Z,7.41
2022-11-27T14:02:25.809Z,7.54
2022-11-27T14:04:56.647Z,8.07
2022-11-27T14:07:36.793Z,8.40
2022-11-27T14:10:11.533Z,8.33
2022-11-27T14:12:39.870Z,8.52
2022-11-27T14:15:10.963Z,8.17
2022-11-27T14:17:42.124Z,8.59
2022-11-27T14:20:26.320Z,8.03
2022-11-27T14:23:11.839Z,7.80
2022-11-27T14:25:40.888Z,7.83
2022-11-27T14:28:15.715Z,8.01
2022-11-27T14:30:48.551Z,7.45
2022-11-27T14:33:21.417Z,7.56
2022-11-27T14:35:50.667Z,7.10
2022-11-27T14:38:20.371Z,7.58
2022-11-27T14:40:48.955Z,6.87
2022-11-27T14:43:18.735Z,7.20
2022-11-27T14:45:48.766Z,7.37
2022-11-27T14:48:21.123Z,6.92
2022-11-27T14:50:50.289Z,7.12
2022-11-27T14:53:21.814Z,7.24
2022-11-27T14:55:51.162Z,7.62
2022-11-27T14:58:21.471Z,7.79
2022-11-27T15:00:54.400Z,7.22
2022-11-27T15:03:22.769Z,7.28
2022-11-27T15:05:56.520Z,7.45
2022-11-27T15:08:26.466Z,7.59
2022-11-27T15:10:56.351Z,8.06
2022-11-27T15:13:26.354Z,7.67
2022-11-27T15:15:57.696Z,7.80
2022-11-27T15:18:26.411Z,7.37
2022-11-27T15:20:55.888Z,7.55
2022-11-27T15:23:27.953Z,7.51
2022-11-27T15:26:14.296Z,7.18
2022-11-27T15:28:50.681Z,7.17
2022-11-27T15:31:25.344Z,7.07
2022-11-27T15:33:58.058Z,7.56
2022-11-27T15:36:26.572Z,6.84
2022-11-27T15:39:17.019Z,6.83
2022-11-27T15:41:55.643Z,7.42
2022-11-27T15:44:24.770Z,6.90
2022-11-27T15:46:54.171Z,7.18
2022-11-27T15:49:23.406Z,7.42
2022-11-27T15:51:51.843Z,7.68
2022-11-27T15:54:21.443Z,8.20
2022-11-27T15:56:49.932Z,8.00
2022-11-27T15:59:20.510Z,7.45
2022-11-27T16:01:49.589Z,7.14
2022-11-27T16:04:18.074Z,7.20
2022-11-27T16:06:46.323Z,7.69
2022-11-27T16:09:14.552Z,7.12
2022-11-27T16:11:44.329Z,7.30
2022-11-27T16:14:12.645Z,7.09
2022-11-27T16:16:41.230Z,7.11
2022-11-27T16:19:12.127Z,7.21
2022-11-27T16:21:40.565Z,7.64
2022-11-27T16:24:10.377Z,7.50
2022-11-27T16:26:38.943Z,7.63
2022-11-27T16:29:09.557Z,7.19
2022-11-27T16:31:37.659Z,7.74
2022-11-27T16:34:06.613Z,7.15
2022-11-27T16:36:34.915Z,7.50
2022-11-27T16:39:03.188Z,7.85
2022-11-27T16:41:31.466Z,7.71
2022-11-27T16:43:59.706Z,6.91
2022-11-27T16:46:30.674Z,6.75
2022-11-27T16:49:00.757Z,7.35
2022-11-27T16:51:31.296Z,6.61
2022-11-27T16:54:01.268Z,6.93
2022-11-27T16:56:30.751Z,7.54
2022-11-27T16:59:03.067Z,7.32
2022-11-27T17:01:36.204Z,7.48
2022-11-27T17:04:07.078Z,7.82
2022-11-27T17:06:36.517Z,7.49
2022-11-27T17:09:06.846Z,7.75
2022-11-27T17:11:36.696Z,7.78
2022-11-27T17:14:07.777Z,7.87
2022-11-27T17:16:39.520Z,7.40
2022-11-27T17:19:08.005Z,7.72
2022-11-27T17:21:36.589Z,7.58
2022-11-27T17:24:11.642Z,7.01
2022-11-27T17:26:43.520Z,6.56
2022-11-27T17:29:12.080Z,7.12
2022-11-27T17:31:41.902Z,7.25
2022-11-27T17:34:12.556Z,6.89
2022-11-27T17:36:42.095Z,6.74
2022-11-27T17:39:11.547Z,6.81
2022-11-27T17:41:40.895Z,6.96
2022-11-27T17:44:09.570Z,6.94
2022-11-27T17:46:39.901Z,6.57
2022-11-27T17:49:09.593Z,6.42
2022-11-27T17:51:38.550Z,6.46
2022-11-27T17:54:06.967Z,6.82
2022-11-27T17:56:35.921Z,6.32
2022-11-27T17:59:04.703Z,6.56
2022-11-27T18:01:34.624Z,6.62
2022-11-27T18:04:04.200Z,6.89
2022-11-27T18:06:36.150Z,7.07
2022-11-27T18:09:04.977Z,6.60
2022-11-27T18:11:34.234Z,6.84
2022-11-27T18:14:03.115Z,6.58
2022-11-27T18:16:33.545Z,6.85
2022-11-27T18:19:03.618Z,7.04
2022-11-27T18:21:33.682Z,7.23
2022-11-27T18:29:41.239Z,7.07
2022-11-27T18:32:09.940Z,7.17
2022-11-27T18:34:38.465Z,7.21
2022-11-27T18:37:08.440Z,7.44
2022-11-27T18:39:37.885Z,7.35
2022-11-27T18:42:06.876Z,6.91
2022-11-27T18:44:41.130Z,7.12
2022-11-27T18:47:12.504Z,7.17
2022-11-27T18:49:41.277Z,6.74
2022-11-27T18:52:11.552Z,7.08
2022-11-27T18:54:39.817Z,7.25
2022-11-27T18:57:08.069Z,7.15
2022-11-27T18:59:36.637Z,7.13
2022-11-27T19:02:05.463Z,6.99
2022-11-27T19:04:36.283Z,7.68
2022-11-27T19:07:04.458Z,7.08
2022-11-27T19:09:34.026Z,7.22
2022-11-27T19:12:02.354Z,7.23
2022-11-27T19:14:32.004Z,7.56
2022-11-27T19:17:00.268Z,7.36
2022-11-27T19:22:17.192Z,7.60
2022-11-27T19:24:47.048Z,7.51
2022-11-27T19:27:15.345Z,7.36
2022-11-27T19:29:43.728Z,7.48
2022-11-27T19:32:12.219Z,7.74
2022-11-27T19:34:40.983Z,7.64
2022-11-27T19:37:09.429Z,7.71
2022-11-27T19:39:37.756Z,7.80
2022-11-27T19:42:07.436Z,7.63
2022-11-27T19:44:36.004Z,7.48
2022-11-27T19:47:04.340Z,7.67
2022-11-27T19:49:32.591Z,7.72
2022-11-27T19:52:01.162Z,7.51
2022-11-27T19:54:29.476Z,7.36
2022-11-27T19:56:57.751Z,7.73
2022-11-27T19:59:27.642Z,7.53
2022-11-27T20:01:55.952Z,7.52
2022-11-27T20:04:24.321Z,7.93
2022-11-27T20:06:53.492Z,7.44
2022-11-27T20:09:21.774Z,7.60
2022-11-27T20:11:50.024Z,8.20
2022-11-27T20:14:19.491Z,7.88
2022-11-27T20:16:49.187Z,7.97
2022-11-27T20:19:17.606Z,8.06
2022-11-27T20:21:45.980Z,8.07
2022-11-27T20:24:14.446Z,8.03
2022-11-27T20:26:43.213Z,8.04
2022-11-27T20:29:12.402Z,7.96
2022-11-27T20:31:42.058Z,7.89
2022-11-27T20:34:16.247Z,8.52
2022-11-27T20:36:44.457Z,8.21
2022-11-27T20:39:17.664Z,8.39
2022-11-27T20:41:50.388Z,8.52
2022-11-27T20:44:18.673Z,8.89
2022-11-27T20:46:46.944Z,8.84
2022-11-27T20:49:17.278Z,8.69
2022-11-27T20:51:46.641Z,8.54
2022-11-27T20:54:14.866Z,8.67
2022-11-27T20:56:45.567Z,8.88
2022-11-27T20:59:14.165Z,9.18
2022-11-27T21:01:42.584Z,9.32
2022-11-27T21:04:21.119Z,8.77
2022-11-27T21:06:49.667Z,9.04
2022-11-27T21:09:18.181Z,8.85
2022-11-27T21:11:47.394Z,8.56
2022-11-27T21:14:16.750Z,8.11
2022-11-27T21:16:48.505Z,8.06
2022-11-27T21:19:18.834Z,8.12
2022-11-27T21:21:48.570Z,8.09
2022-11-27T21:24:16.856Z,8.10
2022-11-27T21:26:45.590Z,7.50
2022-11-27T21:29:14.335Z,7.74
2022-11-27T21:31:46.848Z,7.89
2022-11-27T21:34:16.160Z,7.66
2022-11-27T21:36:44.389Z,7.87
2022-11-27T21:39:20.000Z,7.68
2022-11-27T21:41:49.502Z,7.78
2022-11-27T21:44:18.128Z,7.94
2022-11-27T21:46:46.735Z,7.81
2022-11-27T21:49:16.658Z,8.09
2022-11-27T21:51:45.106Z,8.33
2022-11-27T21:54:15.848Z,7.98
2022-11-27T21:56:44.165Z,8.72
2022-11-27T21:59:14.121Z,8.45
2022-11-27T22:01:42.479Z,8.70
2022-11-27T22:04:10.779Z,8.45
2022-11-27T22:06:40.629Z,8.74
2022-11-27T22:09:15.080Z,8.79
2022-11-27T22:11:45.698Z,8.42
2022-11-27T22:14:15.742Z,8.52
2022-11-27T22:16:46.633Z,8.54
2022-11-27T22:19:15.529Z,8.32
2022-11-27T22:21:44.518Z,8.24
2022-11-27T22:24:18.313Z,7.98
2022-11-27T22:26:49.207Z,8.22
2022-11-27T22:29:17.454Z,8.51
2022-11-27T22:31:45.931Z,7.88
2022-11-27T22:34:14.193Z,8.01
2022-11-27T22:36:42.520Z,7.82
2022-11-27T22:39:11.416Z,7.77
2022-11-27T22:41:41.050Z,7.67
2022-11-27T22:44:12.818Z,8.04
2022-11-27T22:46:42.426Z,7.98
2022-11-27T22:49:12.962Z,7.84
2022-11-27T22:51:41.427Z,8.08
2022-11-27T22:54:12.233Z,7.81
2022-11-27T22:56:40.502Z,7.93
2022-11-27T23:01:59.846Z,7.84
2022-11-27T23:04:28.369Z,7.72
2022-11-27T23:06:56.697Z,8.28
2022-11-27T23:09:25.165Z,8.25
2022-11-27T23:11:53.759Z,8.33
2022-11-27T23:14:23.517Z,8.35
2022-11-27T23:16:51.873Z,8.16
2022-11-27T23:19:21.089Z,8.07
2022-11-27T23:21:49.350Z,8.14
2022-11-27T23:24:17.628Z,7.95
2022-11-27T23:26:46.733Z,7.67
2022-11-27T23:29:15.148Z,7.76
2022-11-27T23:31:44.820Z,7.69
2022-11-27T23:34:15.954Z,7.98
2022-11-27T23:36:44.410Z,8.01
2022-11-27T23:39:13.892Z,8.04
2022-11-27T23:41:42.660Z,7.80
2022-11-27T23:44:10.938Z,7.93
2022-11-27T23:46:39.162Z,7.85
2022-11-27T23:49:08.947Z,7.90
2022-11-27T23:51:37.498Z,7.79
2022-11-27T23:54:09.183Z,8.09
2022-11-27T23:56:38.271Z,8.15
2022-11-27T23:59:06.829Z,8.17
